Terminal Aerodrome Forecast
Issued by NWS Twin Cities, MN

Home | Current Version | Previous Version | Text Only | Print | Product List | Glossary On
Versions: 1 2 3 4 5 6 7 8 9 10 11 12 13 14 15 16 17 18 19 20 21 22 23 24 25 26
000
FTUS43 KMPX 270148 AAA
TAFMSP
TAF AMD
KMSP 270148Z 2702/2806 23006KT P6SM FEW080
     FM270300 36007KT P6SM SCT050
     FM270400 VRB03KT P6SM FEW150
     FM271900 36006KT 5SM -TSRA BR SCT030 OVC060CB
     FM280100 03006KT P6SM VCSH OVC040=

USA.gov is the U.S. government's official web portal to all federal, state and local government web resources and services.